ADDS METAR Data INFO
IDs: Format: Raw Decoded Include TAF

Data at: 1509 UTC 11 Dec 2017

KFIN 111450Z 33007KT 7SM SKC 09/01 A3030
KFIN 111350Z 00000KT 7SM SKC 06/02 A3030
KFIN 111250Z 00000KT 7SM SKC 03/02 A3030
KFIN 111150Z 00000KT 7SM SKC 02/01 A3030
KFIN 111050Z 00000KT 7SM SKC 02/02 A3029
KFIN 111035Z AUTO 00000KT 10SM CLR 03/02 A3029 RMK AO2 T00250019
KFIN 111015Z AUTO 00000KT 10SM CLR 02/02 A3029 RMK AO2 T00200015
KFIN 110955Z AUTO 00000KT 10SM CLR 03/02 A3029 RMK AO2 T00250016
KFIN 110935Z AUTO 00000KT 10SM CLR 03/02 A3029 RMK AO2 T00280021
KFIN 110915Z AUTO 00000KT 10SM CLR 03/02 A3029 RMK AO2 T00260016
KFIN 110855Z AUTO 00000KT 10SM CLR 03/02 A3029 RMK AO2 T00340020
KFIN 110835Z AUTO 00000KT 10SM CLR 03/02 A3029 RMK AO2 T00340018
KFIN 110815Z AUTO 31003KT 10SM CLR 04/02 A3029 RMK AO2 T00350021
KFIN 110755Z AUTO 30003KT 10SM CLR 04/02 A3029 RMK AO2 T00360021
KFIN 110735Z AUTO 30003KT 10SM CLR 04/02 A3030 RMK AO2 T00360020
KFIN 110715Z AUTO 32003KT 10SM CLR 04/02 A3030 RMK AO2 T00350022
KFIN 110655Z AUTO 30004KT 10SM CLR 04/03 A3030 RMK AO2 T00350025
KFIN 110635Z AUTO 30003KT 10SM CLR 03/03 A3030 RMK AO2 T00310025
KFIN 110615Z AUTO 29003KT 10SM CLR 03/02 A3030 RMK AO2 T00270024
KFIN 110555Z AUTO 00000KT 10SM CLR 03/03 A3030 RMK AO2 T00320025 10059 20020 401200020
KFIN 110535Z AUTO 00000KT 10SM CLR 03/02 A3030 RMK AO2 T00290024
KFIN 110515Z AUTO 00000KT 10SM CLR 02/02 A3030 RMK AO2 T00240016
KFIN 110455Z AUTO 00000KT 10SM CLR 03/02 A3031 RMK AO2 T00250017
KFIN 110435Z AUTO 00000KT 10SM CLR 02/02 A3031 RMK AO2 T00240020
KFIN 110415Z AUTO 22004KT 10SM CLR 02/02 A3032 RMK AO2 T00230017
KFIN 110355Z AUTO 00000KT 10SM CLR 03/02 A3031 RMK AO2 T00270020
KFIN 110335Z AUTO 00000KT 10SM CLR 03/02 A3031 RMK AO2 T00260018
KFIN 110315Z AUTO 00000KT 10SM CLR 03/02 A3031 RMK AO2 T00300020
KFIN 110255Z AUTO 00000KT 10SM CLR 03/02 A3031 RMK AO2 T00330023
KFIN 110235Z AUTO 00000KT 10SM CLR 03/03 A3031 RMK AO2 T00320025
KFIN 110215Z AUTO 00000KT 10SM CLR 04/03 A3031 RMK AO2 T00360028
KFIN 110155Z AUTO 00000KT 10SM CLR 04/03 A3030 RMK AO2 T00410031
KFIN 110135Z AUTO 00000KT 10SM CLR 04/03 A3030 RMK AO2 T00440034
KFIN 110115Z AUTO 00000KT 10SM CLR 05/04 A3030 RMK AO2 T00470039
KFIN 110055Z AUTO 00000KT 10SM CLR 05/04 A3030 RMK AO2 T00530037
KFIN 102350Z 00000KT 7SM SKC 06/03 A3029
KFIN 102250Z 00000KT 7SM SKC 08/02 A3027
KFIN 102150Z 29003KT 7SM SKC 11/00 A3026
KFIN 102050Z 29005KT 7SM SKC 12/M01 A3025
KFIN 101950Z 31004KT 7SM SKC 12/00 A3026
KFIN 101750Z 32003KT 7SM SKC 10/M02 A3028
KFIN 101650Z 36004KT 7SM SKC 10/M01 A3031
KFIN 101550Z 34008KT 7SM SKC 08/M01 A3034
KFIN 101450Z 33005KT 7SM SKC 07/M01 A3034
KFIN 101350Z 33008KT 7SM SKC 05/00 A3033
KFIN 101250Z 31004KT 7SM SKC 03/M01 A3031
KFIN 101150Z 31005KT 7SM SKC 03/M01 A3029
KFIN 101050Z 31005KT 7SM SKC 03/M01 A3027
KFIN 101035Z AUTO 31006KT 10SM CLR 03/M01 A3026 RMK AO2 T00281010
KFIN 101015Z AUTO 31007KT 10SM CLR 03/M01 A3025 RMK AO2 T00291011
KFIN 100955Z AUTO 31007KT 10SM CLR 03/M01 A3025 RMK AO2 T00301011
KFIN 100935Z AUTO 31007KT 10SM CLR 03/M01 A3025 RMK AO2 T00311010
KFIN 100915Z AUTO 31007KT 10SM CLR 03/M01 A3025 RMK AO2 T00331010
KFIN 100855Z AUTO 31007KT 10SM CLR 04/M01 A3025 RMK AO2 T00361011
KFIN 100835Z AUTO 32010KT 10SM CLR 04/M01 A3023 RMK AO2 T00401013
KFIN 100815Z AUTO 32012G16KT 10SM CLR 04/M02 A3022 RMK AO2 T00431016
KFIN 100755Z AUTO 31008KT 10SM CLR 05/M02 A3021 RMK AO2 T00451020
KFIN 100735Z AUTO 32008KT 10SM CLR 05/M01 A3021 RMK AO2 T00451014
KFIN 100715Z AUTO 32007KT 10SM CLR 05/M01 A3020 RMK AO2 T00451010
KFIN 100655Z AUTO 30005KT 10SM CLR 04/00 A3021 RMK AO2 T00441003
KFIN 100635Z AUTO 29006KT 10SM CLR 05/00 A3020 RMK AO2 T00451001
KFIN 100615Z AUTO 30006KT 10SM CLR 04/00 A3019 RMK AO2 T00420003
KFIN 100555Z AUTO 30005KT 10SM CLR 04/01 A3019 RMK AO2 T00410010 10080 20041 401260041
KFIN 100535Z AUTO 30004KT 10SM CLR 04/02 A3019 RMK AO2 T00430015
KFIN 100515Z AUTO 30005KT 10SM CLR 05/02 A3019 RMK AO2 T00450018
KFIN 100455Z AUTO 29005KT 10SM CLR 05/02 A3019 RMK AO2 T00450020
KFIN 100435Z AUTO 29006KT 10SM CLR 05/02 A3019 RMK AO2 T00460021
KFIN 100415Z AUTO 30005KT 10SM CLR 05/02 A3018 RMK AO2 T00470022
KFIN 100355Z AUTO 30006KT 10SM CLR 05/03 A3019 RMK AO2 T00500025
KFIN 100315Z AUTO 30006KT 10SM CLR 05/03 A3017 RMK AO2 T00520026